createdAt,value
2023-11-17T00:00:42.837Z,99213.16
2023-11-17T00:02:45.402Z,99196.84
2023-11-17T00:04:47.964Z,99185.22
2023-11-17T00:06:50.519Z,99178.94
2023-11-17T00:08:56.775Z,99171.41
2023-11-17T00:10:59.944Z,99168.22
2023-11-17T00:13:02.587Z,99175.66
2023-11-17T00:15:08.293Z,99176.97
2023-11-17T00:17:12.221Z,99171.13
2023-11-17T00:19:15.845Z,99170.13
2023-11-17T00:21:18.900Z,99159.38
2023-11-17T00:23:21.316Z,99169.13
2023-11-17T00:25:25.166Z,99168.31
2023-11-17T00:27:27.606Z,99173.84
2023-11-17T00:29:30.897Z,99164.16
2023-11-17T00:31:33.316Z,99160.81
2023-11-17T00:33:35.882Z,99168.69
2023-11-17T00:35:38.237Z,99159.81
2023-11-17T00:37:40.685Z,99168.09
2023-11-17T00:39:43.258Z,99163.13
2023-11-17T00:41:46.283Z,99159.06
2023-11-17T00:43:48.738Z,99149.13
2023-11-17T00:45:53.495Z,99141.56
2023-11-17T00:47:56.027Z,99128.47
2023-11-17T00:49:58.776Z,99122.00
2023-11-17T00:52:03.570Z,99120.34
2023-11-17T00:54:06.454Z,99113.78
2023-11-17T00:56:12.014Z,99108.50
2023-11-17T00:58:14.405Z,99102.97
2023-11-17T01:00:17.031Z,99096.94
2023-11-17T01:02:19.900Z,99096.59
2023-11-17T01:04:23.095Z,99085.44
2023-11-17T01:06:25.575Z,99077.25
2023-11-17T01:08:30.149Z,99072.66
2023-11-17T01:10:32.489Z,99077.38
2023-11-17T01:12:36.574Z,99081.47
2023-11-17T01:14:39.162Z,99071.94
2023-11-17T01:16:41.813Z,99075.00
2023-11-17T01:18:44.389Z,99064.81
2023-11-17T01:20:46.854Z,99054.06
2023-11-17T01:22:49.294Z,99043.16
2023-11-17T01:24:52.008Z,99041.50
2023-11-17T01:26:54.473Z,99042.16
2023-11-17T01:28:57.500Z,99031.03
2023-11-17T01:31:00.115Z,99021.38
2023-11-17T01:33:02.512Z,99022.47
2023-11-17T01:35:05.570Z,99018.91
2023-11-17T01:37:10.090Z,99006.97
2023-11-17T01:39:13.135Z,99004.03
2023-11-17T01:41:15.556Z,98999.00
2023-11-17T01:43:18.666Z,98996.59
2023-11-17T01:45:22.728Z,98994.50
2023-11-17T01:47:25.972Z,98995.06
2023-11-17T01:49:28.679Z,99002.56
2023-11-17T01:51:32.675Z,99002.41
2023-11-17T01:53:35.341Z,99001.53
2023-11-17T01:55:37.723Z,98983.91
2023-11-17T01:57:41.024Z,98979.06
2023-11-17T01:59:43.558Z,98970.16
2023-11-17T02:01:47.637Z,98966.13
2023-11-17T02:03:50.478Z,98963.44
2023-11-17T02:06:06.787Z,98963.19
2023-11-17T02:08:52.577Z,98960.75
2023-11-17T02:11:01.909Z,98957.59
2023-11-17T02:13:16.126Z,98958.47
2023-11-17T02:15:23.124Z,98953.25
2023-11-17T02:17:30.380Z,98939.41
2023-11-17T02:19:39.036Z,98929.69
2023-11-17T02:21:42.834Z,98934.66
2023-11-17T02:23:48.839Z,98931.00
2023-11-17T02:26:24.082Z,98932.78
2023-11-17T02:29:00.395Z,98934.59
2023-11-17T02:31:34.241Z,98937.81
2023-11-17T02:33:37.005Z,98936.50
2023-11-17T02:35:45.216Z,98934.50
2023-11-17T02:37:51.867Z,98932.59
2023-11-17T02:39:56.515Z,98929.81
2023-11-17T02:41:59.180Z,98927.13
2023-11-17T02:44:13.939Z,98928.03
2023-11-17T02:46:21.678Z,98919.00
2023-11-17T02:48:29.963Z,98907.66
2023-11-17T02:50:40.393Z,98906.63
2023-11-17T02:53:02.041Z,98904.66
2023-11-17T02:55:05.531Z,98900.84
2023-11-17T02:57:09.738Z,98895.56
2023-11-17T02:59:13.331Z,98899.28
2023-11-17T03:01:17.217Z,98893.75
2023-11-17T03:03:24.509Z,98902.34
2023-11-17T03:05:30.157Z,98894.06
2023-11-17T03:07:32.586Z,98895.63
2023-11-17T03:09:35.653Z,98886.59
2023-11-17T03:11:38.918Z,98892.09
2023-11-17T03:13:41.700Z,98882.25
2023-11-17T03:15:45.043Z,98884.38
2023-11-17T03:17:47.437Z,98889.94
2023-11-17T03:19:49.998Z,98875.88
2023-11-17T03:21:55.890Z,98879.84
2023-11-17T03:23:58.440Z,98880.22
2023-11-17T03:26:01.897Z,98874.75
2023-11-17T03:28:04.793Z,98876.56
2023-11-17T03:30:10.999Z,98878.06
2023-11-17T03:32:13.732Z,98882.59
2023-11-17T03:34:31.040Z,98882.31
2023-11-17T03:36:34.678Z,98881.66
2023-11-17T03:38:37.235Z,98876.44
2023-11-17T03:40:39.754Z,98859.19
2023-11-17T03:42:42.954Z,98862.84
2023-11-17T03:44:45.568Z,98850.72
2023-11-17T03:46:47.983Z,98852.06
2023-11-17T03:48:54.177Z,98838.41
2023-11-17T03:50:56.594Z,98838.28
2023-11-17T03:53:01.060Z,98842.88
2023-11-17T03:55:05.593Z,98834.56
2023-11-17T03:57:08.204Z,98841.72
2023-11-17T03:59:14.807Z,98844.41
2023-11-17T04:01:17.375Z,98840.41
2023-11-17T04:03:21.484Z,98833.06
2023-11-17T04:05:23.981Z,98832.81
2023-11-17T04:07:26.777Z,98821.59
2023-11-17T04:09:29.357Z,98833.00
2023-11-17T04:11:35.036Z,98826.91
2023-11-17T04:13:40.632Z,98822.75
2023-11-17T04:15:43.144Z,98823.09
2023-11-17T04:17:47.008Z,98825.59
2023-11-17T04:19:49.657Z,98812.94
2023-11-17T04:21:52.110Z,98815.47
2023-11-17T04:23:54.707Z,98813.81
2023-11-17T04:25:57.079Z,98812.16
2023-11-17T04:27:59.801Z,98821.75
2023-11-17T04:30:02.381Z,98806.47
2023-11-17T04:32:05.379Z,98813.59
2023-11-17T04:34:07.866Z,98805.78
2023-11-17T04:36:13.302Z,98806.38
2023-11-17T04:38:15.737Z,98812.81
2023-11-17T04:40:18.270Z,98817.59
2023-11-17T04:42:21.173Z,98821.94
2023-11-17T04:44:23.621Z,98819.47
2023-11-17T04:46:26.107Z,98827.09
2023-11-17T04:48:30.098Z,98829.84
2023-11-17T04:50:33.453Z,98829.22
2023-11-17T04:52:35.977Z,98847.00
2023-11-17T04:54:38.613Z,98840.53
2023-11-17T04:56:41.200Z,98836.25
2023-11-17T04:58:43.717Z,98829.06
2023-11-17T05:00:48.771Z,98821.13
2023-11-17T05:02:51.572Z,98807.88
2023-11-17T05:04:53.955Z,98810.50
2023-11-17T05:06:57.191Z,98818.03
2023-11-17T05:08:59.756Z,98798.03
2023-11-17T05:11:02.257Z,98806.41
2023-11-17T05:13:04.804Z,98790.28
2023-11-17T05:15:08.830Z,98795.91
2023-11-17T05:17:16.571Z,98804.88
2023-11-17T05:19:19.056Z,98800.41
2023-11-17T05:21:21.954Z,98796.06
2023-11-17T05:23:24.370Z,98792.53
2023-11-17T05:25:29.293Z,98786.59
2023-11-17T05:27:31.714Z,98792.75
2023-11-17T05:29:34.463Z,98783.13
2023-11-17T05:31:37.151Z,98788.41
2023-11-17T05:33:41.368Z,98782.41
2023-11-17T05:35:45.526Z,98784.47
2023-11-17T05:37:47.922Z,98778.16
2023-11-17T05:39:51.126Z,98770.97
2023-11-17T05:41:54.480Z,98774.59
2023-11-17T05:43:56.924Z,98770.09
2023-11-17T05:46:01.903Z,98764.78
2023-11-17T05:48:07.810Z,98772.69
2023-11-17T05:50:13.441Z,98776.97
2023-11-17T05:52:17.797Z,98776.97
2023-11-17T05:54:20.289Z,98770.13
2023-11-17T05:56:23.525Z,98776.19
2023-11-17T05:58:26.153Z,98764.81
2023-11-17T06:00:29.178Z,98766.69
2023-11-17T06:02:33.209Z,98763.16
2023-11-17T06:04:36.412Z,98766.78
2023-11-17T06:06:41.011Z,98762.75
2023-11-17T06:08:43.569Z,98762.75
2023-11-17T06:10:46.198Z,98756.34
2023-11-17T06:12:49.801Z,98753.53
2023-11-17T06:14:52.159Z,98760.56
2023-11-17T06:16:55.995Z,98758.75
2023-11-17T06:18:58.527Z,98754.41
2023-11-17T06:21:01.074Z,98750.69
2023-11-17T06:23:03.599Z,98752.72
2023-11-17T06:25:07.282Z,98748.78
2023-11-17T06:27:12.241Z,98744.16
2023-11-17T06:29:15.523Z,98749.19
2023-11-17T06:31:18.701Z,98746.00
2023-11-17T06:33:21.282Z,98745.69
2023-11-17T06:35:23.759Z,98744.66
2023-11-17T06:37:26.335Z,98740.66
2023-11-17T06:39:30.862Z,98735.78
2023-11-17T06:41:33.649Z,98735.50
2023-11-17T06:43:36.162Z,98729.63
2023-11-17T06:45:39.179Z,98733.19
2023-11-17T06:47:47.045Z,98726.53
2023-11-17T06:49:49.514Z,98727.06
2023-11-17T06:51:52.577Z,98723.25
2023-11-17T06:53:55.019Z,98723.78
2023-11-17T06:55:57.523Z,98727.09
2023-11-17T06:58:00.288Z,98729.53
2023-11-17T07:00:02.858Z,98729.06
2023-11-17T07:02:07.283Z,98724.44
2023-11-17T07:04:12.487Z,98717.81
2023-11-17T07:06:18.422Z,98723.81
2023-11-17T07:08:20.773Z,98718.06
2023-11-17T07:10:26.592Z,98714.34
2023-11-17T07:12:29.954Z,98723.91
2023-11-17T07:14:33.400Z,98719.38
2023-11-17T07:16:43.814Z,98714.50
2023-11-17T07:18:52.311Z,98719.72
2023-11-17T07:20:55.836Z,98711.47
2023-11-17T07:22:58.705Z,98714.03
2023-11-17T07:25:02.217Z,98721.69
2023-11-17T07:27:05.013Z,98717.06
2023-11-17T07:29:08.037Z,98713.44
2023-11-17T07:31:11.935Z,98714.38
2023-11-17T07:33:18.081Z,98714.78
2023-11-17T07:35:20.926Z,98716.44
2023-11-17T07:37:25.644Z,98717.94
2023-11-17T07:39:28.825Z,98709.47
2023-11-17T07:41:31.605Z,98717.28
2023-11-17T07:43:34.206Z,98715.25
2023-11-17T07:45:38.820Z,98716.13
2023-11-17T07:47:43.247Z,98716.03
2023-11-17T07:49:45.870Z,98716.13
2023-11-17T07:51:49.311Z,98712.28
2023-11-17T07:53:53.398Z,98712.97
2023-11-17T07:55:56.434Z,98707.78
2023-11-17T07:57:58.917Z,98710.28
2023-11-17T08:00:01.415Z,98708.47
2023-11-17T08:02:07.619Z,98711.06
2023-11-17T08:04:10.420Z,98711.31
2023-11-17T08:06:13.378Z,98706.63
2023-11-17T08:08:18.711Z,98710.00
2023-11-17T08:10:22.070Z,98712.44
2023-11-17T08:12:24.608Z,98709.66
2023-11-17T08:14:27.079Z,98705.13
2023-11-17T08:16:29.660Z,98707.91
2023-11-17T08:18:32.078Z,98709.34
2023-11-17T08:20:34.712Z,98701.38
2023-11-17T08:22:37.160Z,98701.44
2023-11-17T08:24:39.560Z,98694.81
2023-11-17T08:26:43.501Z,98697.41
2023-11-17T08:28:46.606Z,98689.84
2023-11-17T08:30:53.012Z,98698.78
2023-11-17T08:32:56.928Z,98686.16
2023-11-17T08:34:59.373Z,98689.25
2023-11-17T08:37:01.864Z,98683.78
2023-11-17T08:39:04.482Z,98681.94
2023-11-17T08:41:07.025Z,98674.63
2023-11-17T08:43:09.439Z,98670.09
2023-11-17T08:45:13.871Z,98675.56
2023-11-17T08:47:16.302Z,98679.03
2023-11-17T08:49:18.789Z,98675.38
2023-11-17T08:51:21.247Z,98677.22
2023-11-17T08:53:25.201Z,98675.28
2023-11-17T08:55:29.761Z,98679.63
2023-11-17T08:57:37.941Z,98680.75
2023-11-17T08:59:40.633Z,98677.69
2023-11-17T09:01:44.092Z,98681.19
2023-11-17T09:03:46.743Z,98683.09
2023-11-17T09:05:50.300Z,98685.78
2023-11-17T09:07:53.369Z,98676.56
2023-11-17T09:09:55.790Z,98685.53
2023-11-17T09:12:01.133Z,98678.41
2023-11-17T09:14:08.125Z,98684.56
2023-11-17T09:16:11.007Z,98688.03
2023-11-17T09:18:15.569Z,98680.03
2023-11-17T09:20:19.341Z,98677.13
2023-11-17T09:22:23.266Z,98681.66
2023-11-17T09:24:25.822Z,98681.47
2023-11-17T09:26:28.339Z,98678.88
2023-11-17T09:28:31.254Z,98669.75
2023-11-17T09:30:34.123Z,98684.09
2023-11-17T09:32:36.742Z,98676.84
2023-11-17T09:34:39.212Z,98670.31
2023-11-17T09:36:42.317Z,98674.72
2023-11-17T09:38:44.825Z,98673.78
2023-11-17T09:40:48.267Z,98674.66
2023-11-17T09:42:55.328Z,98677.44
2023-11-17T09:44:57.831Z,98668.38
2023-11-17T09:47:23.170Z,98669.44
2023-11-17T09:49:30.001Z,98671.09
2023-11-17T09:51:35.002Z,98665.69
2023-11-17T09:53:40.016Z,98672.16
2023-11-17T09:55:46.222Z,98668.75
2023-11-17T09:57:55.025Z,98666.63
2023-11-17T09:59:58.570Z,98670.19
2023-11-17T10:02:01.405Z,98665.13
2023-11-17T10:04:07.128Z,98669.63
2023-11-17T10:06:11.478Z,98674.94
2023-11-17T10:08:18.818Z,98667.63
2023-11-17T10:10:23.433Z,98667.63
2023-11-17T10:12:29.014Z,98664.13
2023-11-17T10:14:33.608Z,98664.91
2023-11-17T10:16:36.561Z,98658.66
2023-11-17T10:18:41.857Z,98658.81
2023-11-17T10:20:44.923Z,98657.09
2023-11-17T10:22:51.793Z,98657.50
2023-11-17T10:24:54.444Z,98659.50
2023-11-17T10:26:58.551Z,98663.84
2023-11-17T10:29:01.692Z,98663.84
2023-11-17T10:31:07.198Z,98671.94
2023-11-17T10:33:19.396Z,98664.06
2023-11-17T10:35:27.856Z,98671.16
2023-11-17T10:37:36.662Z,98664.50
2023-11-17T10:40:00.690Z,98671.72
2023-11-17T10:42:19.077Z,98670.28
2023-11-17T10:44:34.286Z,98669.03
2023-11-17T10:46:36.887Z,98669.88
2023-11-17T10:48:41.050Z,98667.47
2023-11-17T10:50:45.132Z,98669.22
2023-11-17T10:52:49.081Z,98667.69
2023-11-17T10:54:51.523Z,98664.00
2023-11-17T10:56:54.184Z,98672.09
2023-11-17T10:58:57.595Z,98661.50
2023-11-17T11:01:00.351Z,98664.59
2023-11-17T11:03:02.972Z,98664.50
2023-11-17T11:05:06.658Z,98671.63
2023-11-17T11:07:09.103Z,98670.19
2023-11-17T11:09:20.772Z,98672.69
2023-11-17T11:11:27.695Z,98661.91
2023-11-17T11:13:31.707Z,98672.69
2023-11-17T11:15:35.168Z,98658.63
2023-11-17T11:17:52.503Z,98654.56
2023-11-17T11:20:04.595Z,98657.84
2023-11-17T11:22:19.297Z,98654.38
2023-11-17T11:24:33.358Z,98658.91
2023-11-17T11:26:39.566Z,98658.25
2023-11-17T11:28:42.978Z,98656.59
2023-11-17T11:30:46.350Z,98652.34
2023-11-17T11:32:49.332Z,98656.38
2023-11-17T11:34:52.173Z,98643.47
2023-11-17T11:36:54.550Z,98641.44
2023-11-17T11:38:57.602Z,98646.84
2023-11-17T11:41:00.960Z,98636.06
2023-11-17T11:43:05.228Z,98634.22
2023-11-17T11:45:09.242Z,98643.09
2023-11-17T11:47:12.251Z,98640.41
2023-11-17T11:49:17.105Z,98643.78
2023-11-17T11:51:24.854Z,98644.53
2023-11-17T11:53:37.957Z,98641.16
2023-11-17T11:55:40.978Z,98638.97
2023-11-17T11:57:59.071Z,98642.41
2023-11-17T12:00:14.796Z,98646.88
2023-11-17T12:02:18.845Z,98640.44
2023-11-17T12:04:22.463Z,98641.19
2023-11-17T12:06:30.709Z,98641.19
2023-11-17T12:08:34.359Z,98640.22
2023-11-17T12:10:45.700Z,98646.75
2023-11-17T12:12:48.644Z,98635.69
2023-11-17T12:14:52.944Z,98645.91
2023-11-17T12:16:59.670Z,98636.38
2023-11-17T12:19:05.138Z,98638.75
2023-11-17T12:21:23.966Z,98641.56
2023-11-17T12:23:46.893Z,98631.94
2023-11-17T12:25:52.519Z,98631.47
2023-11-17T12:27:57.027Z,98626.75
2023-11-17T12:30:02.765Z,98631.16
2023-11-17T12:32:06.471Z,98631.75
2023-11-17T12:34:12.788Z,98626.47
2023-11-17T12:36:18.432Z,98621.16
2023-11-17T12:38:22.968Z,98620.88
2023-11-17T12:40:29.975Z,98621.75
2023-11-17T12:42:32.454Z,98617.03
2023-11-17T12:44:35.302Z,98608.94
2023-11-17T12:46:38.048Z,98616.16
2023-11-17T12:48:40.807Z,98601.03
2023-11-17T12:50:43.329Z,98604.78
2023-11-17T12:53:08.112Z,98607.31
2023-11-17T12:55:11.752Z,98608.53
2023-11-17T12:57:15.891Z,98601.44
2023-11-17T12:59:24.252Z,98606.03
2023-11-17T13:01:31.281Z,98604.03
2023-11-17T13:03:34.072Z,98598.53
2023-11-17T13:05:36.754Z,98591.41
2023-11-17T13:07:39.520Z,98590.38
2023-11-17T13:09:42.250Z,98587.56
2023-11-17T13:11:48.128Z,98587.56
2023-11-17T13:13:53.897Z,98585.84
2023-11-17T13:15:56.308Z,98583.78
2023-11-17T13:17:59.593Z,98586.22
2023-11-17T13:20:02.487Z,98583.63
2023-11-17T13:22:05.507Z,98586.50
2023-11-17T13:24:08.439Z,98583.22
2023-11-17T13:26:27.038Z,98577.81
2023-11-17T13:28:30.138Z,98578.22
2023-11-17T13:30:32.744Z,98585.66
2023-11-17T13:32:52.587Z,98578.88
2023-11-17T13:34:56.253Z,98579.38
2023-11-17T13:37:00.221Z,98577.75
2023-11-17T13:39:14.467Z,98576.19
2023-11-17T13:41:17.593Z,98576.09
2023-11-17T13:43:20.223Z,98576.19
2023-11-17T13:45:23.586Z,98572.75
2023-11-17T13:47:29.198Z,98578.81
2023-11-17T13:49:36.227Z,98581.59
2023-11-17T13:51:39.747Z,98580.63
2023-11-17T13:53:42.464Z,98584.19
2023-11-17T13:55:47.674Z,98583.34
2023-11-17T13:57:50.644Z,98585.91
2023-11-17T13:59:53.153Z,98579.09
2023-11-17T14:02:00.702Z,98583.41
2023-11-17T14:04:07.849Z,98591.63
2023-11-17T14:06:10.778Z,98587.56
2023-11-17T14:08:14.151Z,98586.03
2023-11-17T14:10:19.366Z,98586.13
2023-11-17T14:12:22.767Z,98586.13
2023-11-17T14:14:28.606Z,98579.88
2023-11-17T14:16:31.576Z,98577.25
2023-11-17T14:18:34.196Z,98581.78
2023-11-17T14:20:38.298Z,98586.88
2023-11-17T14:22:41.970Z,98587.06
2023-11-17T14:24:45.762Z,98584.56
2023-11-17T14:26:48.960Z,98579.78
2023-11-17T14:28:51.611Z,98580.91
2023-11-17T14:30:54.599Z,98572.53
2023-11-17T14:32:57.177Z,98584.56
2023-11-17T14:34:59.797Z,98573.78
2023-11-17T14:37:02.452Z,98577.47
2023-11-17T14:39:10.576Z,98579.38
2023-11-17T14:41:15.167Z,98587.34
2023-11-17T14:43:18.179Z,98578.31
2023-11-17T14:45:21.890Z,98581.97
2023-11-17T14:47:28.323Z,98579.38
2023-11-17T14:49:31.835Z,98574.84
2023-11-17T14:51:34.274Z,98573.50
2023-11-17T14:53:36.875Z,98580.53
2023-11-17T14:55:39.374Z,98571.66
2023-11-17T14:57:41.930Z,98568.88
2023-11-17T14:59:46.753Z,98567.63
2023-11-17T15:01:49.388Z,98570.59
2023-11-17T15:03:51.833Z,98566.09
2023-11-17T15:05:54.433Z,98572.56
2023-11-17T15:07:56.815Z,98567.91
2023-11-17T15:09:59.257Z,98569.75
2023-11-17T15:12:01.860Z,98568.97
2023-11-17T15:14:07.317Z,98572.06
2023-11-17T15:16:11.462Z,98570.34
2023-11-17T15:18:14.440Z,98567.53
2023-11-17T15:20:19.209Z,98562.06
2023-11-17T15:22:22.379Z,98563.59
2023-11-17T15:24:25.863Z,98570.81
2023-11-17T15:26:28.774Z,98562.91
2023-11-17T15:28:37.386Z,98566.59
2023-11-17T15:30:47.896Z,98566.75
2023-11-17T15:32:50.793Z,98569.56
2023-11-17T15:34:55.331Z,98567.72
2023-11-17T15:36:57.789Z,98555.13
2023-11-17T15:39:02.215Z,98558.97
2023-11-17T15:41:05.334Z,98560.63
2023-11-17T15:43:08.775Z,98562.41
2023-11-17T15:45:13.231Z,98565.59
2023-11-17T15:47:16.317Z,98569.91
2023-11-17T15:49:18.812Z,98566.75
2023-11-17T15:51:21.370Z,98564.06
2023-11-17T15:53:24.500Z,98563.94
2023-11-17T15:55:27.040Z,98566.63
2023-11-17T15:57:30.701Z,98574.25
2023-11-17T15:59:34.648Z,98577.22
2023-11-17T16:01:40.424Z,98573.06
2023-11-17T16:03:43.444Z,98566.25
2023-11-17T16:05:46.449Z,98567.41
2023-11-17T16:07:54.640Z,98567.31
2023-11-17T16:09:57.416Z,98571.03
2023-11-17T16:12:00.658Z,98566.53
2023-11-17T16:14:06.970Z,98567.31
2023-11-17T16:16:10.938Z,98569.06
2023-11-17T16:18:13.429Z,98565.47
2023-11-17T16:20:17.873Z,98565.06
2023-11-17T16:22:20.562Z,98569.31
2023-11-17T16:24:23.047Z,98566.81
2023-11-17T16:26:25.522Z,98574.00
2023-11-17T16:28:27.889Z,98564.81
2023-11-17T16:30:30.838Z,98573.53
2023-11-17T16:32:33.678Z,98565.06
2023-11-17T16:34:36.505Z,98564.28
2023-11-17T16:36:47.257Z,98565.19
2023-11-17T16:38:51.716Z,98565.66
2023-11-17T16:40:58.268Z,98561.59
2023-11-17T16:43:02.122Z,98563.53
2023-11-17T16:45:09.590Z,98565.19
2023-11-17T16:47:12.648Z,98565.19
2023-11-17T16:49:21.248Z,98564.69
2023-11-17T16:51:23.736Z,98556.28
2023-11-17T16:53:26.507Z,98567.31
2023-11-17T16:55:29.020Z,98572.34
2023-11-17T16:57:32.614Z,98573.03
2023-11-17T16:59:37.422Z,98568.59
2023-11-17T17:01:40.322Z,98573.22
2023-11-17T17:03:43.065Z,98569.94
2023-11-17T17:05:45.682Z,98577.03
2023-11-17T17:07:51.176Z,98569.84
2023-11-17T17:09:53.677Z,98568.28
2023-11-17T17:11:57.953Z,98564.34
2023-11-17T17:14:13.214Z,98569.84
2023-11-17T17:16:22.515Z,98573.41
2023-11-17T17:18:26.055Z,98574.25
2023-11-17T17:20:29.359Z,98572.53
2023-11-17T17:22:32.048Z,98573.28
2023-11-17T17:24:38.075Z,98566.25
2023-11-17T17:26:40.531Z,98575.81
2023-11-17T17:28:43.065Z,98570.44
2023-11-17T17:30:45.622Z,98569.28
2023-11-17T17:32:49.020Z,98579.47
2023-11-17T17:34:52.226Z,98572.44
2023-11-17T17:36:54.911Z,98573.28
2023-11-17T17:38:57.354Z,98569.66
2023-11-17T17:41:01.821Z,98580.44
2023-11-17T17:43:08.091Z,98574.94
2023-11-17T17:45:11.770Z,98575.03
2023-11-17T17:47:14.996Z,98576.50
2023-11-17T17:49:18.278Z,98572.75
2023-11-17T17:51:21.391Z,98583.44
2023-11-17T17:53:23.849Z,98577.00
2023-11-17T17:55:28.673Z,98584.13
2023-11-17T17:57:31.210Z,98577.94
2023-11-17T17:59:47.010Z,98584.19
2023-11-17T18:01:51.363Z,98584.91
2023-11-17T18:03:57.048Z,98586.63
2023-11-17T18:06:03.563Z,98583.94
2023-11-17T18:08:06.384Z,98590.94
2023-11-17T18:10:12.777Z,98591.41
2023-11-17T18:12:15.877Z,98588.06
2023-11-17T18:14:18.480Z,98591.97
2023-11-17T18:16:23.297Z,98594.22
2023-11-17T18:18:26.151Z,98599.31
2023-11-17T18:20:32.470Z,98595.84
2023-11-17T18:22:35.487Z,98601.13
2023-11-17T18:24:38.115Z,98598.63
2023-11-17T18:26:59.596Z,98596.31
2023-11-17T18:29:06.135Z,98596.78
2023-11-17T18:31:08.765Z,98595.16
2023-11-17T18:33:11.806Z,98596.91
2023-11-17T18:35:17.051Z,98592.47
2023-11-17T18:37:19.767Z,98600.53
2023-11-17T18:39:23.069Z,98594.28
2023-11-17T18:41:27.232Z,98594.28
2023-11-17T18:43:30.103Z,98600.91
2023-11-17T18:45:34.332Z,98589.00
2023-11-17T18:47:38.327Z,98597.78
2023-11-17T18:49:40.824Z,98599.94
2023-11-17T18:51:43.803Z,98601.50
2023-11-17T18:53:46.782Z,98591.97
2023-11-17T18:55:51.870Z,98599.75
2023-11-17T18:57:55.471Z,98606.03
2023-11-17T18:59:58.094Z,98598.81
2023-11-17T19:02:00.946Z,98608.22
2023-11-17T19:04:09.531Z,98606.31
2023-11-17T19:06:12.650Z,98605.53
2023-11-17T19:08:16.158Z,98608.81
2023-11-17T19:10:21.900Z,98602.44
2023-11-17T19:12:26.512Z,98606.97
2023-11-17T19:14:29.751Z,98609.59
2023-11-17T19:16:33.268Z,98612.28
2023-11-17T19:18:38.443Z,98615.91
2023-11-17T19:20:42.981Z,98614.00
2023-11-17T19:22:47.195Z,98606.50
2023-11-17T19:24:49.884Z,98620.09
2023-11-17T19:27:06.494Z,98618.78
2023-11-17T19:29:11.494Z,98620.44
2023-11-17T19:31:15.281Z,98617.06
2023-11-17T19:33:26.161Z,98621.59
2023-11-17T19:35:30.393Z,98624.97
2023-11-17T19:37:33.412Z,98630.44
2023-11-17T19:39:38.970Z,98630.81
2023-11-17T19:41:41.806Z,98633.75
2023-11-17T19:43:45.159Z,98631.25
2023-11-17T19:45:48.768Z,98636.25
2023-11-17T19:47:51.507Z,98630.72
2023-11-17T19:49:54.097Z,98629.81
2023-11-17T19:51:57.785Z,98631.59
2023-11-17T19:54:00.277Z,98632.44
2023-11-17T19:56:05.565Z,98639.41
2023-11-17T19:58:11.083Z,98634.47
2023-11-17T20:00:14.573Z,98632.44
2023-11-17T20:02:17.206Z,98635.22
2023-11-17T20:04:19.961Z,98633.50
2023-11-17T20:06:22.530Z,98639.75
2023-11-17T20:08:26.152Z,98635.59
2023-11-17T20:10:31.832Z,98637.31
2023-11-17T20:12:34.391Z,98637.22
2023-11-17T20:14:38.431Z,98638.09
2023-11-17T20:16:44.389Z,98633.69
2023-11-17T20:18:47.293Z,98641.56
2023-11-17T20:20:49.681Z,98636.84
2023-11-17T20:22:52.737Z,98640.53
2023-11-17T20:24:58.734Z,98640.53
2023-11-17T20:27:05.256Z,98644.19
2023-11-17T20:29:13.077Z,98649.63
2023-11-17T20:31:17.387Z,98641.56
2023-11-17T20:33:19.922Z,98641.56
2023-11-17T20:35:25.572Z,98645.22
2023-11-17T20:37:28.473Z,98643.84
2023-11-17T20:39:35.380Z,98647.31
2023-11-17T20:41:38.059Z,98646.34
2023-11-17T20:43:41.993Z,98643.66
2023-11-17T20:45:44.976Z,98649.91
2023-11-17T20:47:50.987Z,98652.41
2023-11-17T20:49:54.119Z,98652.34
2023-11-17T20:51:56.495Z,98655.22
2023-11-17T20:54:01.174Z,98656.16
2023-11-17T20:56:04.120Z,98654.34
2023-11-17T20:58:08.546Z,98663.63
2023-11-17T21:00:15.921Z,98661.47
2023-11-17T21:02:19.845Z,98661.88
2023-11-17T21:04:22.448Z,98661.03
2023-11-17T21:06:25.638Z,98664.19
2023-11-17T21:08:28.008Z,98666.00
2023-11-17T21:10:32.380Z,98665.44
2023-11-17T21:12:35.181Z,98675.97
2023-11-17T21:14:38.191Z,98680.97
2023-11-17T21:16:41.001Z,98678.22
2023-11-17T21:18:44.419Z,98681.78
2023-11-17T21:20:46.836Z,98685.69
2023-11-17T21:22:50.018Z,98680.19
2023-11-17T21:24:52.681Z,98688.56
2023-11-17T21:26:55.405Z,98681.78
2023-11-17T21:29:01.070Z,98684.66
2023-11-17T21:31:04.041Z,98685.81
2023-11-17T21:33:08.387Z,98686.19
2023-11-17T21:35:15.486Z,98689.41
2023-11-17T21:37:18.090Z,98687.28
2023-11-17T21:39:21.908Z,98694.88
2023-11-17T21:41:24.325Z,98688.53
2023-11-17T21:43:27.162Z,98690.09
2023-11-17T21:45:30.131Z,98692.59
2023-11-17T21:47:32.732Z,98702.31
2023-11-17T21:49:35.166Z,98711.25
2023-11-17T21:51:40.032Z,98702.16
2023-11-17T21:53:42.864Z,98702.16
2023-11-17T21:55:45.461Z,98703.09
2023-11-17T21:57:48.216Z,98705.97
2023-11-17T21:59:50.750Z,98712.47
2023-11-17T22:01:54.653Z,98707.88
2023-11-17T22:03:57.812Z,98709.16
2023-11-17T22:06:00.571Z,98715.31
2023-11-17T22:08:03.139Z,98718.59
2023-11-17T22:10:06.436Z,98719.28
2023-11-17T22:12:12.247Z,98720.25
2023-11-17T22:14:14.929Z,98723.44
2023-11-17T22:16:17.504Z,98731.22
2023-11-17T22:18:19.944Z,98736.25
2023-11-17T22:20:22.641Z,98747.34
2023-11-17T22:22:25.837Z,98738.31
2023-11-17T22:24:28.293Z,98737.63
2023-11-17T22:26:31.318Z,98747.47
2023-11-17T22:28:35.028Z,98755.19
2023-11-17T22:30:38.368Z,98747.66
2023-11-17T22:32:45.577Z,98745.47
2023-11-17T22:34:48.062Z,98751.78
2023-11-17T22:36:51.793Z,98759.03
2023-11-17T22:38:54.172Z,98759.53
2023-11-17T22:40:56.705Z,98756.13
2023-11-17T22:42:59.137Z,98757.53
2023-11-17T22:45:01.609Z,98751.69
2023-11-17T22:47:04.111Z,98756.75
2023-11-17T22:49:06.633Z,98762.38
2023-11-17T22:51:08.953Z,98777.13
2023-11-17T22:53:11.567Z,98768.78
2023-11-17T22:55:14.090Z,98773.13
2023-11-17T22:57:17.176Z,98768.16
2023-11-17T22:59:20.048Z,98767.53
2023-11-17T23:01:22.692Z,98764.03
2023-11-17T23:03:26.569Z,98766.63
2023-11-17T23:05:28.888Z,98768.38
2023-11-17T23:07:31.840Z,98778.56
2023-11-17T23:09:40.599Z,98777.31
2023-11-17T23:11:45.421Z,98770.50
2023-11-17T23:13:51.096Z,98774.94
2023-11-17T23:15:53.780Z,98778.66
2023-11-17T23:17:57.013Z,98777.38
2023-11-17T23:20:01.711Z,98779.03
2023-11-17T23:22:04.395Z,98778.09
2023-11-17T23:24:07.370Z,98782.44
2023-11-17T23:26:09.837Z,98776.81
2023-11-17T23:28:12.205Z,98787.19
2023-11-17T23:30:15.418Z,98783.75
2023-11-17T23:32:17.886Z,98790.16
2023-11-17T23:34:21.208Z,98794.81
2023-11-17T23:36:23.945Z,98797.56
2023-11-17T23:38:26.450Z,98801.44
2023-11-17T23:40:29.208Z,98791.25
2023-11-17T23:42:31.751Z,98794.56
2023-11-17T23:44:34.450Z,98803.47
2023-11-17T23:46:38.769Z,98807.88
2023-11-17T23:48:42.427Z,98805.34
2023-11-17T23:50:44.886Z,98814.56
2023-11-17T23:52:47.235Z,98812.94
2023-11-17T23:54:49.809Z,98821.56
2023-11-17T23:56:52.160Z,98819.47
2023-11-17T23:58:54.605Z,98827.25
